sensor_id;sensor_type;location;lat;lon;timestamp;pressure;altitude;pressure_sealevel;temperature;humidity
74336;BME280;62755;-33.398;-70.572;2023-12-20T00:02:09;93134.69;;;21.46;45.64
74336;BME280;62755;-33.398;-70.572;2023-12-20T00:04:38;93134.97;;;21.48;45.67
74336;BME280;62755;-33.398;-70.572;2023-12-20T00:07:09;93142.50;;;21.58;45.25
74336;BME280;62755;-33.398;-70.572;2023-12-20T00:09:39;93143.94;;;21.74;44.90
74336;BME280;62755;-33.398;-70.572;2023-12-20T00:12:09;93143.28;;;21.59;45.29
74336;BME280;62755;-33.398;-70.572;2023-12-20T00:14:38;93143.97;;;21.54;45.37
74336;BME280;62755;-33.398;-70.572;2023-12-20T00:17:08;93142.34;;;21.22;46.12
74336;BME280;62755;-33.398;-70.572;2023-12-20T00:19:37;93145.88;;;21.28;45.93
74336;BME280;62755;-33.398;-70.572;2023-12-20T00:22:08;93147.94;;;21.13;46.18
74336;BME280;62755;-33.398;-70.572;2023-12-20T00:24:37;93147.47;;;20.99;46.57
74336;BME280;62755;-33.398;-70.572;2023-12-20T00:27:07;93148.16;;;20.94;46.72
74336;BME280;62755;-33.398;-70.572;2023-12-20T00:29:36;93157.69;;;20.84;47.03
74336;BME280;62755;-33.398;-70.572;2023-12-20T00:32:06;93153.34;;;20.78;47.05
74336;BME280;62755;-33.398;-70.572;2023-12-20T00:34:36;93144.75;;;20.65;47.25
74336;BME280;62755;-33.398;-70.572;2023-12-20T00:37:05;93153.53;;;20.89;46.75
74336;BME280;62755;-33.398;-70.572;2023-12-20T00:39:36;93150.00;;;20.68;47.32
74336;BME280;62755;-33.398;-70.572;2023-12-20T00:42:06;93162.59;;;20.66;47.40
74336;BME280;62755;-33.398;-70.572;2023-12-20T00:44:35;93161.78;;;20.94;46.88
74336;BME280;62755;-33.398;-70.572;2023-12-20T00:47:05;93161.09;;;20.79;47.10
74336;BME280;62755;-33.398;-70.572;2023-12-20T00:49:34;93165.03;;;20.64;47.18
74336;BME280;62755;-33.398;-70.572;2023-12-20T00:52:03;93159.06;;;20.45;47.56
74336;BME280;62755;-33.398;-70.572;2023-12-20T00:54:33;93162.50;;;20.60;47.42
74336;BME280;62755;-33.398;-70.572;2023-12-20T00:57:04;93164.53;;;20.45;47.67
74336;BME280;62755;-33.398;-70.572;2023-12-20T00:59:34;93170.19;;;20.76;47.01
74336;BME280;62755;-33.398;-70.572;2023-12-20T01:02:03;93158.31;;;20.59;47.24
74336;BME280;62755;-33.398;-70.572;2023-12-20T01:04:33;93158.66;;;20.67;47.14
74336;BME280;62755;-33.398;-70.572;2023-12-20T01:07:02;93158.41;;;20.50;47.56
74336;BME280;62755;-33.398;-70.572;2023-12-20T01:09:32;93157.75;;;20.55;47.43
74336;BME280;62755;-33.398;-70.572;2023-12-20T01:12:01;93162.66;;;20.22;47.90
74336;BME280;62755;-33.398;-70.572;2023-12-20T01:14:32;93161.72;;;20.25;47.98
74336;BME280;62755;-33.398;-70.572;2023-12-20T01:17:02;93163.88;;;20.21;47.97
74336;BME280;62755;-33.398;-70.572;2023-12-20T01:19:31;93160.19;;;20.09;48.10
74336;BME280;62755;-33.398;-70.572;2023-12-20T01:22:01;93167.44;;;20.27;47.77
74336;BME280;62755;-33.398;-70.572;2023-12-20T01:24:30;93167.44;;;20.27;47.76
74336;BME280;62755;-33.398;-70.572;2023-12-20T01:27:00;93164.03;;;20.17;48.03
74336;BME280;62755;-33.398;-70.572;2023-12-20T01:29:29;93166.88;;;20.08;48.30
74336;BME280;62755;-33.398;-70.572;2023-12-20T01:32:00;93168.69;;;20.26;47.79
74336;BME280;62755;-33.398;-70.572;2023-12-20T01:34:29;93169.59;;;20.23;47.88
74336;BME280;62755;-33.398;-70.572;2023-12-20T01:36:59;93167.72;;;20.29;47.75
74336;BME280;62755;-33.398;-70.572;2023-12-20T01:39:29;93160.88;;;20.19;48.03
74336;BME280;62755;-33.398;-70.572;2023-12-20T01:41:58;93173.28;;;20.20;48.01
74336;BME280;62755;-33.398;-70.572;2023-12-20T01:44:28;93175.59;;;20.27;47.88
74336;BME280;62755;-33.398;-70.572;2023-12-20T01:46:59;93173.72;;;20.19;47.96
74336;BME280;62755;-33.398;-70.572;2023-12-20T01:49:29;93165.63;;;20.09;48.15
74336;BME280;62755;-33.398;-70.572;2023-12-20T01:51:58;93168.44;;;20.15;47.95
74336;BME280;62755;-33.398;-70.572;2023-12-20T01:54:28;93172.03;;;20.06;48.21
74336;BME280;62755;-33.398;-70.572;2023-12-20T01:56:57;93174.28;;;20.23;47.90
74336;BME280;62755;-33.398;-70.572;2023-12-20T01:59:27;93164.16;;;20.23;47.72
74336;BME280;62755;-33.398;-70.572;2023-12-20T02:01:59;93172.97;;;20.33;47.71
74336;BME280;62755;-33.398;-70.572;2023-12-20T02:04:29;93176.28;;;20.22;47.99
74336;BME280;62755;-33.398;-70.572;2023-12-20T02:06:59;93171.16;;;20.15;48.17
74336;BME280;62755;-33.398;-70.572;2023-12-20T02:09:29;93169.75;;;20.05;48.27
74336;BME280;62755;-33.398;-70.572;2023-12-20T02:11:59;93169.56;;;19.94;48.39
74336;BME280;62755;-33.398;-70.572;2023-12-20T02:14:28;93158.09;;;19.90;48.56
74336;BME280;62755;-33.398;-70.572;2023-12-20T02:16:59;93164.56;;;19.78;48.46
74336;BME280;62755;-33.398;-70.572;2023-12-20T02:19:29;93170.56;;;19.67;49.06
74336;BME280;62755;-33.398;-70.572;2023-12-20T02:22:11;93169.75;;;20.05;48.13
74336;BME280;62755;-33.398;-70.572;2023-12-20T02:24:40;93163.44;;;19.99;48.41
74336;BME280;62755;-33.398;-70.572;2023-12-20T02:27:10;93173.53;;;19.93;48.16
74336;BME280;62755;-33.398;-70.572;2023-12-20T02:29:39;93174.53;;;19.81;48.38
74336;BME280;62755;-33.398;-70.572;2023-12-20T02:32:08;93164.13;;;19.94;48.02
74336;BME280;62755;-33.398;-70.572;2023-12-20T02:34:38;93170.38;;;19.71;48.65
74336;BME280;62755;-33.398;-70.572;2023-12-20T02:37:09;93167.31;;;19.92;48.07
74336;BME280;62755;-33.398;-70.572;2023-12-20T02:39:38;93167.41;;;19.45;48.99
74336;BME280;62755;-33.398;-70.572;2023-12-20T02:42:08;93163.75;;;19.48;48.96
74336;BME280;62755;-33.398;-70.572;2023-12-20T02:44:37;93158.69;;;19.56;48.73
74336;BME280;62755;-33.398;-70.572;2023-12-20T02:47:06;93152.19;;;19.39;49.18
74336;BME280;62755;-33.398;-70.572;2023-12-20T02:49:36;93151.00;;;19.54;48.87
74336;BME280;62755;-33.398;-70.572;2023-12-20T02:52:05;93154.28;;;19.44;49.20
74336;BME280;62755;-33.398;-70.572;2023-12-20T02:54:36;93152.19;;;19.39;49.36
74336;BME280;62755;-33.398;-70.572;2023-12-20T02:57:06;93147.53;;;19.54;49.03
74336;BME280;62755;-33.398;-70.572;2023-12-20T02:59:36;93150.25;;;19.54;48.67
74336;BME280;62755;-33.398;-70.572;2023-12-20T03:02:05;93143.34;;;19.29;49.30
74336;BME280;62755;-33.398;-70.572;2023-12-20T03:04:34;93150.88;;;19.34;49.34
74336;BME280;62755;-33.398;-70.572;2023-12-20T03:07:04;93149.25;;;19.27;49.16
74336;BME280;62755;-33.398;-70.572;2023-12-20T03:09:33;93150.28;;;19.30;49.20
74336;BME280;62755;-33.398;-70.572;2023-12-20T03:12:04;93144.38;;;19.32;49.05
74336;BME280;62755;-33.398;-70.572;2023-12-20T03:14:34;93143.22;;;19.23;49.19
74336;BME280;62755;-33.398;-70.572;2023-12-20T03:17:03;93137.97;;;19.44;48.70
74336;BME280;62755;-33.398;-70.572;2023-12-20T03:19:33;93138.06;;;19.25;48.87
74336;BME280;62755;-33.398;-70.572;2023-12-20T03:22:02;93136.84;;;19.03;49.16
74336;BME280;62755;-33.398;-70.572;2023-12-20T03:24:31;93136.56;;;19.24;49.01
74336;BME280;62755;-33.398;-70.572;2023-12-20T03:27:01;93138.41;;;19.18;49.30
74336;BME280;62755;-33.398;-70.572;2023-12-20T03:29:32;93137.84;;;18.91;50.01
74336;BME280;62755;-33.398;-70.572;2023-12-20T03:32:01;93134.09;;;18.88;50.26
74336;BME280;62755;-33.398;-70.572;2023-12-20T03:34:31;93133.06;;;18.86;50.32
74336;BME280;62755;-33.398;-70.572;2023-12-20T03:37:00;93129.97;;;18.69;50.70
74336;BME280;62755;-33.398;-70.572;2023-12-20T03:39:29;93131.19;;;18.92;50.32
74336;BME280;62755;-33.398;-70.572;2023-12-20T03:41:59;93134.03;;;18.97;50.31
74336;BME280;62755;-33.398;-70.572;2023-12-20T03:44:28;93126.94;;;19.00;50.08
74336;BME280;62755;-33.398;-70.572;2023-12-20T03:46:59;93123.16;;;18.97;50.20
74336;BME280;62755;-33.398;-70.572;2023-12-20T03:49:28;93124.06;;;18.47;50.99
74336;BME280;62755;-33.398;-70.572;2023-12-20T03:51:58;93124.41;;;18.64;50.56
74336;BME280;62755;-33.398;-70.572;2023-12-20T03:54:27;93117.84;;;18.79;50.28
74336;BME280;62755;-33.398;-70.572;2023-12-20T03:56:56;93116.00;;;18.85;50.13
74336;BME280;62755;-33.398;-70.572;2023-12-20T03:59:26;93120.66;;;18.61;50.62
74336;BME280;62755;-33.398;-70.572;2023-12-20T04:01:55;93114.94;;;18.59;50.49
74336;BME280;62755;-33.398;-70.572;2023-12-20T04:04:26;93106.38;;;18.75;50.24
74336;BME280;62755;-33.398;-70.572;2023-12-20T04:06:55;93112.72;;;18.49;50.97
74336;BME280;62755;-33.398;-70.572;2023-12-20T04:09:25;93106.84;;;18.41;51.06
74336;BME280;62755;-33.398;-70.572;2023-12-20T04:11:54;93103.06;;;18.48;50.69
74336;BME280;62755;-33.398;-70.572;2023-12-20T04:14:23;93097.38;;;18.69;50.21
74336;BME280;62755;-33.398;-70.572;2023-12-20T04:16:53;93094.25;;;18.85;49.73
74336;BME280;62755;-33.398;-70.572;2023-12-20T04:19:23;93097.50;;;18.98;49.68
74336;BME280;62755;-33.398;-70.572;2023-12-20T04:21:54;93095.22;;;18.97;49.78
74336;BME280;62755;-33.398;-70.572;2023-12-20T04:24:23;93086.34;;;18.96;49.55
74336;BME280;62755;-33.398;-70.572;2023-12-20T04:26:53;93063.34;;;18.59;49.78
74336;BME280;62755;-33.398;-70.572;2023-12-20T04:29:22;93094.34;;;19.14;49.46
74336;BME280;62755;-33.398;-70.572;2023-12-20T04:31:51;93092.06;;;18.75;50.17
74336;BME280;62755;-33.398;-70.572;2023-12-20T04:34:21;93087.94;;;19.03;49.51
74336;BME280;62755;-33.398;-70.572;2023-12-20T04:36:51;93092.66;;;19.02;49.75
74336;BME280;62755;-33.398;-70.572;2023-12-20T04:39:22;93083.16;;;18.74;50.26
74336;BME280;62755;-33.398;-70.572;2023-12-20T04:41:51;93080.25;;;19.01;49.79
74336;BME280;62755;-33.398;-70.572;2023-12-20T04:44:21;93081.31;;;18.80;50.63
74336;BME280;62755;-33.398;-70.572;2023-12-20T04:46:50;93078.88;;;18.82;50.41
74336;BME280;62755;-33.398;-70.572;2023-12-20T04:49:19;93073.78;;;18.75;50.34
74336;BME280;62755;-33.398;-70.572;2023-12-20T04:51:49;93076.66;;;18.95;50.17
74336;BME280;62755;-33.398;-70.572;2023-12-20T04:54:18;93084.91;;;18.86;50.37
74336;BME280;62755;-33.398;-70.572;2023-12-20T04:56:49;93075.88;;;19.04;49.78
74336;BME280;62755;-33.398;-70.572;2023-12-20T04:59:19;93075.59;;;19.16;49.82
74336;BME280;62755;-33.398;-70.572;2023-12-20T05:01:48;93073.53;;;19.11;49.42
74336;BME280;62755;-33.398;-70.572;2023-12-20T05:04:18;93071.22;;;18.95;49.95
74336;BME280;62755;-33.398;-70.572;2023-12-20T05:06:50;93075.50;;;18.87;50.32
74336;BME280;62755;-33.398;-70.572;2023-12-20T05:09:21;93068.94;;;18.79;50.52
74336;BME280;62755;-33.398;-70.572;2023-12-20T05:11:52;93071.59;;;18.88;50.20
74336;BME280;62755;-33.398;-70.572;2023-12-20T05:14:21;93076.56;;;18.90;50.21
74336;BME280;62755;-33.398;-70.572;2023-12-20T05:16:51;93066.75;;;18.92;50.09
74336;BME280;62755;-33.398;-70.572;2023-12-20T05:19:21;93065.84;;;19.10;49.84
74336;BME280;62755;-33.398;-70.572;2023-12-20T05:21:50;93060.47;;;19.01;50.34
74336;BME280;62755;-33.398;-70.572;2023-12-20T05:24:19;93052.88;;;18.90;50.47
74336;BME280;62755;-33.398;-70.572;2023-12-20T05:26:52;93055.34;;;18.79;50.73
74336;BME280;62755;-33.398;-70.572;2023-12-20T05:29:21;93047.78;;;18.83;50.17
74336;BME280;62755;-33.398;-70.572;2023-12-20T05:31:51;93043.16;;;18.51;50.86
74336;BME280;62755;-33.398;-70.572;2023-12-20T05:34:20;93049.69;;;18.12;51.73
74336;BME280;62755;-33.398;-70.572;2023-12-20T05:36:49;93040.22;;;18.31;51.23
74336;BME280;62755;-33.398;-70.572;2023-12-20T05:39:19;93033.78;;;17.96;52.11
74336;BME280;62755;-33.398;-70.572;2023-12-20T05:41:50;93044.97;;;18.21;52.13
74336;BME280;62755;-33.398;-70.572;2023-12-20T05:44:19;93035.22;;;18.38;51.68
74336;BME280;62755;-33.398;-70.572;2023-12-20T05:46:48;93030.78;;;18.50;51.42
74336;BME280;62755;-33.398;-70.572;2023-12-20T05:49:18;93033.88;;;18.34;51.23
74336;BME280;62755;-33.398;-70.572;2023-12-20T05:51:48;93033.53;;;18.41;51.02
74336;BME280;62755;-33.398;-70.572;2023-12-20T05:54:18;93035.03;;;18.42;51.36
74336;BME280;62755;-33.398;-70.572;2023-12-20T05:56:50;93031.94;;;18.58;50.70
74336;BME280;62755;-33.398;-70.572;2023-12-20T05:59:19;93016.41;;;18.26;51.51
74336;BME280;62755;-33.398;-70.572;2023-12-20T06:01:49;93024.03;;;18.46;50.91
74336;BME280;62755;-33.398;-70.572;2023-12-20T06:04:18;93022.59;;;18.26;51.29
74336;BME280;62755;-33.398;-70.572;2023-12-20T06:06:47;93026.63;;;18.07;51.52
74336;BME280;62755;-33.398;-70.572;2023-12-20T06:09:17;93018.63;;;17.80;52.06
74336;BME280;62755;-33.398;-70.572;2023-12-20T06:11:46;93018.53;;;17.57;52.79
74336;BME280;62755;-33.398;-70.572;2023-12-20T06:14:17;93023.06;;;17.50;52.75
74336;BME280;62755;-33.398;-70.572;2023-12-20T06:16:46;93018.41;;;17.33;53.58
74336;BME280;62755;-33.398;-70.572;2023-12-20T06:19:16;93004.72;;;17.27;53.85
74336;BME280;62755;-33.398;-70.572;2023-12-20T06:21:45;93005.59;;;17.42;53.43
74336;BME280;62755;-33.398;-70.572;2023-12-20T06:24:14;93009.22;;;17.30;53.94
74336;BME280;62755;-33.398;-70.572;2023-12-20T06:26:44;93020.06;;;17.48;53.36
74336;BME280;62755;-33.398;-70.572;2023-12-20T06:29:13;93017.66;;;17.32;53.59
74336;BME280;62755;-33.398;-70.572;2023-12-20T06:31:44;93017.88;;;16.84;54.24
74336;BME280;62755;-33.398;-70.572;2023-12-20T06:34:14;93020.41;;;16.87;54.66
74336;BME280;62755;-33.398;-70.572;2023-12-20T06:36:43;93009.56;;;16.69;54.86
74336;BME280;62755;-33.398;-70.572;2023-12-20T06:39:11;93018.75;;;16.90;54.56
74336;BME280;62755;-33.398;-70.572;2023-12-20T06:41:40;93023.44;;;16.89;54.34
74336;BME280;62755;-33.398;-70.572;2023-12-20T06:44:10;93024.63;;;16.97;54.16
74336;BME280;62755;-33.398;-70.572;2023-12-20T06:46:39;93009.28;;;16.94;54.33
74336;BME280;62755;-33.398;-70.572;2023-12-20T06:49:10;93014.97;;;17.14;53.82
74336;BME280;62755;-33.398;-70.572;2023-12-20T06:51:39;93020.69;;;17.16;53.69
74336;BME280;62755;-33.398;-70.572;2023-12-20T06:54:09;93010.78;;;16.95;54.24
74336;BME280;62755;-33.398;-70.572;2023-12-20T06:56:38;93011.97;;;17.03;53.75
74336;BME280;62755;-33.398;-70.572;2023-12-20T06:59:08;93007.13;;;17.25;53.14
74336;BME280;62755;-33.398;-70.572;2023-12-20T07:01:37;93011.97;;;17.21;53.67
74336;BME280;62755;-33.398;-70.572;2023-12-20T07:04:06;93012.25;;;17.14;53.91
74336;BME280;62755;-33.398;-70.572;2023-12-20T07:06:37;92999.63;;;17.02;53.82
74336;BME280;62755;-33.398;-70.572;2023-12-20T07:09:07;93011.66;;;17.10;53.52
74336;BME280;62755;-33.398;-70.572;2023-12-20T07:11:37;93002.66;;;16.95;53.72
74336;BME280;62755;-33.398;-70.572;2023-12-20T07:14:07;92997.81;;;17.08;53.84
74336;BME280;62755;-33.398;-70.572;2023-12-20T07:16:36;93002.78;;;17.01;54.06
74336;BME280;62755;-33.398;-70.572;2023-12-20T07:19:05;93008.81;;;17.05;53.74
74336;BME280;62755;-33.398;-70.572;2023-12-20T07:21:36;93005.03;;;17.20;53.50
74336;BME280;62755;-33.398;-70.572;2023-12-20T07:24:06;93004.75;;;17.09;53.40
74336;BME280;62755;-33.398;-70.572;2023-12-20T07:26:36;93016.50;;;16.88;54.11
74336;BME280;62755;-33.398;-70.572;2023-12-20T07:29:06;93005.22;;;16.81;54.32
74336;BME280;62755;-33.398;-70.572;2023-12-20T07:31:35;93015.59;;;16.91;54.31
74336;BME280;62755;-33.398;-70.572;2023-12-20T07:34:05;93008.97;;;16.65;54.84
74336;BME280;62755;-33.398;-70.572;2023-12-20T07:36:36;93010.19;;;16.73;54.61
74336;BME280;62755;-33.398;-70.572;2023-12-20T07:39:05;93016.34;;;16.55;54.90
74336;BME280;62755;-33.398;-70.572;2023-12-20T07:41:35;93010.63;;;16.53;55.17
74336;BME280;62755;-33.398;-70.572;2023-12-20T07:44:05;93011.69;;;16.56;54.98
74336;BME280;62755;-33.398;-70.572;2023-12-20T07:46:34;93018.63;;;16.66;54.92
74336;BME280;62755;-33.398;-70.572;2023-12-20T07:49:04;93020.41;;;16.51;54.90
74336;BME280;62755;-33.398;-70.572;2023-12-20T07:51:37;93016.50;;;16.70;54.87
74336;BME280;62755;-33.398;-70.572;2023-12-20T07:54:06;93016.81;;;16.81;54.23
74336;BME280;62755;-33.398;-70.572;2023-12-20T07:56:36;93017.13;;;16.74;54.21
74336;BME280;62755;-33.398;-70.572;2023-12-20T07:59:06;93017.13;;;16.74;54.31
74336;BME280;62755;-33.398;-70.572;2023-12-20T08:01:36;93024.94;;;16.90;53.74
74336;BME280;62755;-33.398;-70.572;2023-12-20T08:04:05;93019.22;;;16.97;53.53
74336;BME280;62755;-33.398;-70.572;2023-12-20T08:06:36;92996.78;;;16.97;53.52
74336;BME280;62755;-33.398;-70.572;2023-12-20T08:09:05;93015.59;;;16.91;53.93
74336;BME280;62755;-33.398;-70.572;2023-12-20T08:11:35;93015.88;;;17.02;53.41
74336;BME280;62755;-33.398;-70.572;2023-12-20T08:14:04;93020.72;;;16.80;53.80
74336;BME280;62755;-33.398;-70.572;2023-12-20T08:16:34;93021.63;;;16.95;53.88
74336;BME280;62755;-33.398;-70.572;2023-12-20T08:19:03;93024.34;;;16.86;53.83
74336;BME280;62755;-33.398;-70.572;2023-12-20T08:21:33;93022.22;;;16.99;53.75
74336;BME280;62755;-33.398;-70.572;2023-12-20T08:24:04;93017.84;;;17.11;53.42
74336;BME280;62755;-33.398;-70.572;2023-12-20T08:26:34;93025.97;;;16.75;53.90
74336;BME280;62755;-33.398;-70.572;2023-12-20T08:29:03;93032.47;;;16.86;53.86
74336;BME280;62755;-33.398;-70.572;2023-12-20T08:31:33;93033.38;;;16.74;54.42
74336;BME280;62755;-33.398;-70.572;2023-12-20T08:34:02;93022.38;;;17.05;53.43
74336;BME280;62755;-33.398;-70.572;2023-12-20T08:36:31;93029.13;;;17.18;53.28
74336;BME280;62755;-33.398;-70.572;2023-12-20T08:39:01;93031.22;;;17.23;53.02
74336;BME280;62755;-33.398;-70.572;2023-12-20T08:41:35;93030.47;;;17.23;52.97
74336;BME280;62755;-33.398;-70.572;2023-12-20T08:44:05;93035.44;;;17.33;52.74
74336;BME280;62755;-33.398;-70.572;2023-12-20T08:46:34;93037.09;;;17.31;53.03
74336;BME280;62755;-33.398;-70.572;2023-12-20T08:49:04;93032.44;;;17.31;52.96
74336;BME280;62755;-33.398;-70.572;2023-12-20T08:51:33;93031.50;;;17.34;52.58
74336;BME280;62755;-33.398;-70.572;2023-12-20T08:54:02;93040.28;;;16.93;53.70
74336;BME280;62755;-33.398;-70.572;2023-12-20T08:56:36;93033.66;;;17.03;53.24
74336;BME280;62755;-33.398;-70.572;2023-12-20T08:59:05;93044.66;;;17.00;53.84
74336;BME280;62755;-33.398;-70.572;2023-12-20T09:01:35;93041.94;;;16.82;54.07
74336;BME280;62755;-33.398;-70.572;2023-12-20T09:04:04;93038.78;;;16.92;53.81
74336;BME280;62755;-33.398;-70.572;2023-12-20T09:06:34;93046.16;;;16.92;53.78
74336;BME280;62755;-33.398;-70.572;2023-12-20T09:09:03;93045.53;;;16.79;54.43
74336;BME280;62755;-33.398;-70.572;2023-12-20T09:11:37;93048.25;;;16.88;54.08
74336;BME280;62755;-33.398;-70.572;2023-12-20T09:14:06;93042.22;;;16.93;54.28
74336;BME280;62755;-33.398;-70.572;2023-12-20T09:16:36;93057.72;;;17.19;53.45
74336;BME280;62755;-33.398;-70.572;2023-12-20T09:19:05;93049.13;;;17.30;53.21
74336;BME280;62755;-33.398;-70.572;2023-12-20T09:21:34;93052.75;;;17.27;53.24
74336;BME280;62755;-33.398;-70.572;2023-12-20T09:24:04;93055.47;;;17.09;53.50
74336;BME280;62755;-33.398;-70.572;2023-12-20T09:26:35;93059.81;;;17.24;53.57
74336;BME280;62755;-33.398;-70.572;2023-12-20T09:29:04;93059.53;;;17.31;53.28
74336;BME280;62755;-33.398;-70.572;2023-12-20T09:31:36;93051.38;;;17.40;53.03
74336;BME280;62755;-33.398;-70.572;2023-12-20T09:34:06;93056.03;;;17.40;52.96
74336;BME280;62755;-33.398;-70.572;2023-12-20T09:36:35;93061.63;;;17.18;53.52
74336;BME280;62755;-33.398;-70.572;2023-12-20T09:39:07;93060.75;;;17.03;54.19
74336;BME280;62755;-33.398;-70.572;2023-12-20T09:41:42;93056.38;;;17.15;54.23
74336;BME280;62755;-33.398;-70.572;2023-12-20T09:44:15;93062.56;;;17.15;54.15
74336;BME280;62755;-33.398;-70.572;2023-12-20T09:46:46;93066.44;;;16.96;54.74
74336;BME280;62755;-33.398;-70.572;2023-12-20T09:49:19;93064.66;;;16.84;54.76
74336;BME280;62755;-33.398;-70.572;2023-12-20T09:51:51;93049.47;;;16.78;54.78
74336;BME280;62755;-33.398;-70.572;2023-12-20T09:54:21;93067.97;;;16.88;54.88
74336;BME280;62755;-33.398;-70.572;2023-12-20T09:56:52;93070.22;;;16.99;54.76
74336;BME280;62755;-33.398;-70.572;2023-12-20T09:59:21;93076.69;;;17.10;54.53
74336;BME280;62755;-33.398;-70.572;2023-12-20T10:01:52;93077.91;;;16.82;55.14
74336;BME280;62755;-33.398;-70.572;2023-12-20T10:04:24;93081.91;;;16.59;55.91
74336;BME280;62755;-33.398;-70.572;2023-12-20T10:06:54;93087.78;;;16.67;55.88
74336;BME280;62755;-33.398;-70.572;2023-12-20T10:09:23;93093.22;;;16.67;55.85
74336;BME280;62755;-33.398;-70.572;2023-12-20T10:11:56;93085.69;;;16.62;55.84
74336;BME280;62755;-33.398;-70.572;2023-12-20T10:14:26;93087.19;;;16.63;56.27
74336;BME280;62755;-33.398;-70.572;2023-12-20T10:17:02;93094.03;;;16.46;56.33
74336;BME280;62755;-33.398;-70.572;2023-12-20T10:19:32;93095.47;;;16.20;57.58
74336;BME280;62755;-33.398;-70.572;2023-12-20T10:22:04;93091.31;;;16.37;56.94
74336;BME280;62755;-33.398;-70.572;2023-12-20T10:24:33;93094.53;;;16.14;58.31
74336;BME280;62755;-33.398;-70.572;2023-12-20T10:27:05;93098.59;;;16.09;58.33
74336;BME280;62755;-33.398;-70.572;2023-12-20T10:29:35;93089.19;;;16.32;57.62
74336;BME280;62755;-33.398;-70.572;2023-12-20T10:32:24;93100.94;;;16.29;57.35
74336;BME280;62755;-33.398;-70.572;2023-12-20T10:34:54;93099.94;;;16.14;57.66
74336;BME280;62755;-33.398;-70.572;2023-12-20T10:37:23;93103.38;;;16.05;57.14
74336;BME280;62755;-33.398;-70.572;2023-12-20T10:39:53;93105.03;;;16.03;57.88
74336;BME280;62755;-33.398;-70.572;2023-12-20T10:42:27;93109.19;;;15.95;58.32
74336;BME280;62755;-33.398;-70.572;2023-12-20T10:45:00;93101.97;;;15.92;58.65
74336;BME280;62755;-33.398;-70.572;2023-12-20T10:47:31;93103.81;;;15.73;58.88
74336;BME280;62755;-33.398;-70.572;2023-12-20T10:50:02;93088.09;;;15.80;58.93
74336;BME280;62755;-33.398;-70.572;2023-12-20T10:52:35;93102.00;;;16.01;58.77
74336;BME280;62755;-33.398;-70.572;2023-12-20T10:55:06;93088.78;;;16.03;58.93
74336;BME280;62755;-33.398;-70.572;2023-12-20T10:57:37;93092.50;;;16.27;57.72
74336;BME280;62755;-33.398;-70.572;2023-12-20T11:00:09;93094.97;;;16.43;57.41
74336;BME280;62755;-33.398;-70.572;2023-12-20T11:02:44;93099.19;;;16.53;57.21
74336;BME280;62755;-33.398;-70.572;2023-12-20T11:05:24;93092.28;;;16.61;56.97
74336;BME280;62755;-33.398;-70.572;2023-12-20T11:07:58;93091.19;;;16.40;57.30
74336;BME280;62755;-33.398;-70.572;2023-12-20T11:10:37;93098.22;;;16.38;57.79
74336;BME280;62755;-33.398;-70.572;2023-12-20T11:13:15;93089.53;;;16.43;57.40
74336;BME280;62755;-33.398;-70.572;2023-12-20T11:15:46;93094.41;;;16.57;57.43
74336;BME280;62755;-33.398;-70.572;2023-12-20T11:18:16;93092.13;;;16.55;57.27
74336;BME280;62755;-33.398;-70.572;2023-12-20T11:20:45;93100.56;;;16.57;57.40
74336;BME280;62755;-33.398;-70.572;2023-12-20T11:23:15;93101.03;;;16.56;57.46
74336;BME280;62755;-33.398;-70.572;2023-12-20T11:25:48;93070.31;;;16.50;57.34
74336;BME280;62755;-33.398;-70.572;2023-12-20T11:28:21;93093.66;;;16.65;57.16
74336;BME280;62755;-33.398;-70.572;2023-12-20T11:30:52;93094.72;;;16.68;57.15
74336;BME280;62755;-33.398;-70.572;2023-12-20T11:33:26;93094.47;;;16.93;56.66
74336;BME280;62755;-33.398;-70.572;2023-12-20T11:35:56;93095.34;;;17.08;56.29
74336;BME280;62755;-33.398;-70.572;2023-12-20T11:38:26;93096.25;;;17.14;56.42
74336;BME280;62755;-33.398;-70.572;2023-12-20T11:40:56;93093.41;;;17.18;56.06
74336;BME280;62755;-33.398;-70.572;2023-12-20T11:43:36;93096.28;;;17.23;56.06
74336;BME280;62755;-33.398;-70.572;2023-12-20T11:46:06;93092.81;;;17.14;56.63
74336;BME280;62755;-33.398;-70.572;2023-12-20T11:48:36;93097.47;;;17.31;56.25
74336;BME280;62755;-33.398;-70.572;2023-12-20T11:51:10;93092.34;;;17.33;55.92
74336;BME280;62755;-33.398;-70.572;2023-12-20T11:53:39;93099.25;;;17.43;56.04
74336;BME280;62755;-33.398;-70.572;2023-12-20T11:56:09;93086.31;;;17.57;55.20
74336;BME280;62755;-33.398;-70.572;2023-12-20T11:58:41;93080.91;;;17.57;55.24
74336;BME280;62755;-33.398;-70.572;2023-12-20T12:01:10;93086.28;;;17.66;54.87
74336;BME280;62755;-33.398;-70.572;2023-12-20T12:03:39;93082.34;;;17.76;54.99
74336;BME280;62755;-33.398;-70.572;2023-12-20T12:06:09;93085.66;;;17.80;54.70
74336;BME280;62755;-33.398;-70.572;2023-12-20T12:08:42;93075.75;;;17.77;54.87
74336;BME280;62755;-33.398;-70.572;2023-12-20T12:11:11;93088.81;;;17.87;54.56
74336;BME280;62755;-33.398;-70.572;2023-12-20T12:13:42;93089.91;;;17.81;55.17
74336;BME280;62755;-33.398;-70.572;2023-12-20T12:16:12;93079.97;;;17.60;55.11
74336;BME280;62755;-33.398;-70.572;2023-12-20T12:18:42;93063.44;;;17.48;55.54
74336;BME280;62755;-33.398;-70.572;2023-12-20T12:21:19;93082.69;;;17.60;55.38
74336;BME280;62755;-33.398;-70.572;2023-12-20T12:23:48;93075.91;;;17.64;55.43
74336;BME280;62755;-33.398;-70.572;2023-12-20T12:26:17;93084.50;;;17.63;55.28
74336;BME280;62755;-33.398;-70.572;2023-12-20T12:28:51;93090.81;;;17.60;55.34
74336;BME280;62755;-33.398;-70.572;2023-12-20T12:31:20;93086.28;;;17.75;55.31
74336;BME280;62755;-33.398;-70.572;2023-12-20T12:33:50;93080.53;;;17.82;55.13
74336;BME280;62755;-33.398;-70.572;2023-12-20T12:36:19;93081.16;;;17.68;55.28
74336;BME280;62755;-33.398;-70.572;2023-12-20T12:38:48;93082.69;;;17.69;55.43
74336;BME280;62755;-33.398;-70.572;2023-12-20T12:41:17;93074.72;;;17.56;55.39
74336;BME280;62755;-33.398;-70.572;2023-12-20T12:43:48;93081.47;;;17.79;55.52
74336;BME280;62755;-33.398;-70.572;2023-12-20T12:46:17;93084.13;;;17.88;55.06